Time;durP1;ratioP1;P1;durP2;ratioP2;P2;SDS_P1;SDS_P2;PMS_P1;PMS_P2;Temp;Humidity;BMP_temperature;BMP_pressure;BME280_temperature;BME280_humidity;BME280_pressure;Samples;Min_cycle;Max_cycle;Signal;HPM_P1;HPM_P2
2022/03/10 00:00:36;;;;;;;21.20;14.40;;;2.40;89.70;;;;;;5032800;28;20241;-57
2022/03/10 00:03:02;;;;;;;22.23;13.50;;;2.50;89.90;;;;;;5032218;28;20271;-58
2022/03/10 00:05:29;;;;;;;21.23;12.37;;;2.50;89.80;;;;;;5032629;28;20206;-57
2022/03/10 00:07:56;;;;;;;18.87;13.60;;;2.50;90.10;;;;;;5032175;28;20202;-58
2022/03/10 00:10:22;;;;;;;20.90;13.13;;;2.60;89.60;;;;;;5032187;28;20229;-57
2022/03/10 00:12:51;;;;;;;22.17;13.37;;;2.60;89.50;;;;;;5032143;28;20210;-57
2022/03/10 00:15:20;;;;;;;20.83;13.87;;;2.60;89.60;;;;;;5032159;28;20206;-59
2022/03/10 00:17:47;;;;;;;19.97;13.33;;;2.70;89.70;;;;;;5031442;28;20293;-57
2022/03/10 00:20:14;;;;;;;21.33;13.13;;;2.70;89.50;;;;;;5031658;28;20210;-58
2022/03/10 00:22:45;;;;;;;20.77;13.60;;;2.70;89.40;;;;;;5032334;28;20206;-58
2022/03/10 00:25:12;;;;;;;21.57;13.27;;;2.70;89.40;;;;;;5031955;28;20210;-57
2022/03/10 00:27:38;;;;;;;19.93;12.53;;;2.60;89.60;;;;;;5031884;28;20207;-58
2022/03/10 00:30:07;;;;;;;20.73;13.43;;;2.70;89.80;;;;;;5031711;28;20234;-57
2022/03/10 00:32:42;;;;;;;21.20;14.03;;;2.60;90.00;;;;;;5031957;28;20248;-58
2022/03/10 00:35:09;;;;;;;18.60;12.33;;;2.50;90.00;;;;;;5032040;28;20209;-57
2022/03/10 00:37:36;;;;;;;21.13;12.50;;;2.50;90.00;;;;;;5031492;28;20205;-57
2022/03/10 00:40:03;;;;;;;19.60;11.87;;;2.50;90.00;;;;;;5031666;28;20205;-57
2022/03/10 00:42:35;;;;;;;16.93;11.80;;;2.50;90.00;;;;;;5031568;28;20696;-58
2022/03/10 00:45:02;;;;;;;18.37;11.33;;;2.40;90.00;;;;;;5031993;28;20214;-57
2022/03/10 00:47:29;;;;;;;23.60;12.70;;;2.40;89.90;;;;;;5031467;28;20264;-57
2022/03/10 00:49:57;;;;;;;20.00;11.73;;;2.50;90.00;;;;;;5031723;28;20240;-58
2022/03/10 00:52:24;;;;;;;19.80;11.50;;;2.40;90.00;;;;;;5031440;28;20230;-58
2022/03/10 00:54:50;;;;;;;19.27;12.57;;;2.40;90.10;;;;;;5031492;28;20581;-57
2022/03/10 00:57:17;;;;;;;19.27;11.77;;;2.30;90.20;;;;;;5031259;28;20210;-57
2022/03/10 00:59:44;;;;;;;19.37;11.80;;;2.30;90.20;;;;;;5031754;28;20280;-57
2022/03/10 01:02:10;;;;;;;19.27;12.03;;;2.30;90.20;;;;;;5031346;28;20230;-57
2022/03/10 01:04:37;;;;;;;19.80;11.67;;;2.40;90.20;;;;;;5031605;28;20284;-57
2022/03/10 01:07:05;;;;;;;18.57;12.00;;;2.40;90.10;;;;;;5031366;28;20709;-57
2022/03/10 01:09:32;;;;;;;19.00;12.27;;;2.40;90.10;;;;;;5031100;28;20230;-57
2022/03/10 01:11:58;;;;;;;17.10;11.97;;;2.50;90.00;;;;;;5031299;28;20554;-57
2022/03/10 01:14:25;;;;;;;18.50;12.50;;;2.50;90.30;;;;;;5031632;28;20206;-57
2022/03/10 01:16:52;;;;;;;19.27;12.37;;;2.40;90.30;;;;;;5031598;28;20206;-58
2022/03/10 01:19:18;;;;;;;18.53;12.10;;;2.40;90.30;;;;;;5031322;28;20202;-57
2022/03/10 01:21:45;;;;;;;20.30;13.47;;;2.50;90.40;;;;;;5031363;28;20276;-57
2022/03/10 01:24:13;;;;;;;16.97;12.40;;;2.50;90.40;;;;;;5031986;28;20206;-57
2022/03/10 01:26:40;;;;;;;22.10;12.13;;;2.40;90.50;;;;;;5031165;28;20264;-58
2022/03/10 01:29:06;;;;;;;19.07;12.13;;;2.40;90.60;;;;;;5031271;28;20230;-58
2022/03/10 01:31:33;;;;;;;18.00;11.97;;;2.30;90.60;;;;;;5034566;28;20226;-58
2022/03/10 01:34:00;;;;;;;17.83;12.20;;;2.20;90.60;;;;;;5035021;28;20313;-57
2022/03/10 01:36:27;;;;;;;18.47;11.43;;;2.20;90.70;;;;;;5034828;28;20206;-58
2022/03/10 01:38:53;;;;;;;17.37;11.40;;;2.10;90.90;;;;;;5034585;28;20199;-58
2022/03/10 01:41:21;;;;;;;18.07;11.60;;;2.00;91.00;;;;;;5035378;28;20233;-58
2022/03/10 01:43:58;;;;;;;16.20;10.97;;;2.00;91.00;;;;;;5034898;28;20670;-58
2022/03/10 01:46:25;;;;;;;17.43;11.63;;;1.90;91.00;;;;;;5034738;28;20206;-58
2022/03/10 01:48:52;;;;;;;17.47;10.40;;;2.00;90.90;;;;;;5034430;28;20241;-58
2022/03/10 01:51:19;;;;;;;14.73;9.97;;;1.90;91.00;;;;;;5034468;28;20226;-58
2022/03/10 01:53:48;;;;;;;17.77;11.30;;;1.80;91.20;;;;;;5034787;28;20258;-58
2022/03/10 01:56:16;;;;;;;17.73;10.33;;;1.80;91.30;;;;;;5034621;28;20218;-58
2022/03/10 01:58:45;;;;;;;16.27;10.93;;;1.70;91.30;;;;;;5034302;28;20226;-58
2022/03/10 02:01:11;;;;;;;15.40;10.47;;;1.70;91.50;;;;;;5034222;28;20234;-58
2022/03/10 02:03:38;;;;;;;16.63;10.57;;;1.70;91.40;;;;;;5034286;28;20214;-58
2022/03/10 02:06:05;;;;;;;19.93;11.60;;;1.70;91.50;;;;;;5034363;28;20211;-58
2022/03/10 02:11:18;;;;;;;16.73;10.53;;;1.70;91.50;;;;;;5034173;28;20237;-55
2022/03/10 02:13:46;;;;;;;15.67;9.87;;;1.60;91.70;;;;;;5034178;28;20678;-58
2022/03/10 02:18:58;;;;;;;14.53;10.13;;;1.60;91.80;;;;;;5034508;28;20225;-58
2022/03/10 02:21:26;;;;;;;15.53;11.13;;;1.60;91.90;;;;;;5034061;28;20226;-58
2022/03/10 02:23:54;;;;;;;16.07;10.93;;;1.60;92.00;;;;;;5034041;28;20213;-59
2022/03/10 02:26:21;;;;;;;18.30;11.10;;;1.60;91.90;;;;;;5034396;28;20210;-58
2022/03/10 02:28:49;;;;;;;18.90;11.60;;;1.70;91.90;;;;;;5033513;28;20256;-58
2022/03/10 02:31:16;;;;;;;16.83;11.80;;;1.70;91.90;;;;;;5033826;28;20717;-58
2022/03/10 02:33:43;;;;;;;17.67;11.40;;;1.70;91.90;;;;;;5033841;28;20701;-58
2022/03/10 02:36:10;;;;;;;18.63;12.00;;;1.70;91.90;;;;;;5033857;28;20206;-58
2022/03/10 02:38:36;;;;;;;18.00;11.67;;;1.60;92.00;;;;;;5033660;28;20616;-58
2022/03/10 02:41:04;;;;;;;17.80;12.13;;;1.70;91.90;;;;;;5033074;28;20667;-58
2022/03/10 02:43:31;;;;;;;16.70;11.40;;;1.70;91.90;;;;;;5033195;28;20210;-58
2022/03/10 02:45:58;;;;;;;19.67;12.00;;;1.70;91.80;;;;;;5033833;28;20210;-58
2022/03/10 02:48:25;;;;;;;17.53;11.70;;;1.70;91.70;;;;;;5033325;28;20666;-58
2022/03/10 02:50:52;;;;;;;21.73;12.30;;;1.70;91.70;;;;;;5033519;28;20631;-58
2022/03/10 02:53:18;;;;;;;19.97;12.40;;;1.70;91.60;;;;;;5033626;28;20704;-58
2022/03/10 02:55:45;;;;;;;20.67;12.37;;;1.70;91.70;;;;;;5033859;28;20218;-58
2022/03/10 02:58:13;;;;;;;16.67;11.37;;;1.60;91.90;;;;;;5033790;28;20280;-58
2022/03/10 03:00:40;;;;;;;17.87;12.40;;;1.60;91.80;;;;;;5033201;28;20242;-58
2022/03/10 03:03:07;;;;;;;17.43;12.03;;;1.60;91.80;;;;;;5033628;28;20615;-58
2022/03/10 03:05:34;;;;;;;21.20;12.93;;;1.60;91.80;;;;;;5033701;28;20213;-58
2022/03/10 03:08:00;;;;;;;19.83;12.33;;;1.60;91.80;;;;;;5032948;28;20207;-58
2022/03/10 03:10:27;;;;;;;17.03;11.77;;;1.60;91.80;;;;;;5032993;28;20234;-58
2022/03/10 03:12:54;;;;;;;18.40;12.70;;;1.70;91.80;;;;;;5032960;28;20206;-58
2022/03/10 03:15:22;;;;;;;17.57;11.90;;;1.70;91.80;;;;;;5033218;28;20206;-58
2022/03/10 03:17:48;;;;;;;17.83;12.00;;;1.70;91.80;;;;;;5032789;28;20233;-58
2022/03/10 03:20:16;;;;;;;20.37;12.43;;;1.70;91.80;;;;;;5032912;28;20284;-58
2022/03/10 03:22:43;;;;;;;20.60;12.60;;;1.70;91.70;;;;;;5033287;28;20201;-58
2022/03/10 03:25:11;;;;;;;20.27;12.37;;;1.70;92.10;;;;;;5032710;28;20631;-58
2022/03/10 03:27:37;;;;;;;18.17;12.00;;;1.70;91.90;;;;;;5032679;28;20202;-58
2022/03/10 03:30:05;;;;;;;22.37;12.40;;;1.70;91.90;;;;;;5032715;28;20742;-58
2022/03/10 03:32:34;;;;;;;17.70;12.47;;;1.70;91.90;;;;;;5032771;28;20301;-57
2022/03/10 03:35:00;;;;;;;18.03;11.57;;;1.60;92.10;;;;;;5032494;28;20236;-57
2022/03/10 03:37:27;;;;;;;19.17;11.77;;;1.60;91.80;;;;;;5032380;28;20213;-57
2022/03/10 03:39:54;;;;;;;20.53;12.87;;;1.60;92.20;;;;;;5032614;28;20253;-57
2022/03/10 03:42:20;;;;;;;17.33;11.53;;;1.50;92.40;;;;;;5032522;28;20731;-57
2022/03/10 03:44:47;;;;;;;17.97;12.47;;;1.50;92.40;;;;;;5032665;28;20210;-57
2022/03/10 03:47:14;;;;;;;19.60;12.67;;;1.50;92.30;;;;;;5032515;28;20210;-57
2022/03/10 03:49:42;;;;;;;20.43;12.57;;;1.50;92.30;;;;;;5032536;28;20222;-58
2022/03/10 03:52:08;;;;;;;18.37;12.10;;;1.50;92.10;;;;;;5032259;28;20285;-57
2022/03/10 03:54:35;;;;;;;19.93;12.30;;;1.50;92.10;;;;;;5032175;28;20312;-58
2022/03/10 03:57:02;;;;;;;18.17;11.80;;;1.60;92.20;;;;;;5032513;28;20213;-58
2022/03/10 03:59:29;;;;;;;19.00;12.37;;;1.50;92.10;;;;;;5032110;28;20232;-57
2022/03/10 04:01:55;;;;;;;20.03;12.67;;;1.50;92.10;;;;;;5032063;28;20745;-57
2022/03/10 04:04:22;;;;;;;20.07;12.13;;;1.50;92.20;;;;;;5032201;28;20674;-57
2022/03/10 04:06:51;;;;;;;19.20;11.57;;;1.40;92.20;;;;;;5032042;28;20210;-57
2022/03/10 04:09:17;;;;;;;20.97;12.60;;;1.40;92.20;;;;;;5032080;28;20646;-57
2022/03/10 04:11:45;;;;;;;26.97;16.60;;;1.50;92.20;;;;;;5032223;28;20309;-57
2022/03/10 04:14:12;;;;;;;23.50;13.70;;;1.40;92.20;;;;;;5032177;28;20206;-57
2022/03/10 04:16:40;;;;;;;22.30;13.87;;;1.40;92.30;;;;;;5032015;28;20652;-57
2022/03/10 04:19:07;;;;;;;19.83;12.13;;;1.40;92.40;;;;;;5031671;28;20659;-57
2022/03/10 04:21:33;;;;;;;21.90;11.93;;;1.40;92.50;;;;;;5031812;28;20730;-58
2022/03/10 04:24:02;;;;;;;18.07;10.83;;;1.40;92.40;;;;;;5032147;28;20249;-58
2022/03/10 04:26:29;;;;;;;16.87;11.20;;;1.40;92.50;;;;;;5031875;28;20573;-58
2022/03/10 04:28:56;;;;;;;14.00;10.17;;;1.40;92.50;;;;;;5031735;28;20285;-55
2022/03/10 04:31:23;;;;;;;12.57;8.43;;;1.40;92.60;;;;;;5031786;28;20292;-56
2022/03/10 04:33:50;;;;;;;11.87;8.63;;;1.40;92.60;;;;;;5032241;28;20210;-56
2022/03/10 04:36:17;;;;;;;15.77;8.60;;;1.30;92.60;;;;;;5032014;28;20210;-57
2022/03/10 04:38:44;;;;;;;13.77;8.63;;;1.30;92.70;;;;;;5031638;28;20667;-56
2022/03/10 04:41:13;;;;;;;10.93;6.67;;;1.30;92.80;;;;;;5031684;28;20253;-56
2022/03/10 04:43:40;;;;;;;11.40;7.40;;;1.30;93.00;;;;;;5031871;28;20213;-57
2022/03/10 04:46:07;;;;;;;16.37;8.97;;;1.30;93.00;;;;;;5031715;28;20221;-56
2022/03/10 04:48:33;;;;;;;15.47;9.37;;;1.20;93.00;;;;;;5031502;28;20202;-56
2022/03/10 04:51:00;;;;;;;13.13;8.50;;;1.20;93.10;;;;;;5031412;28;20230;-57
2022/03/10 04:53:27;;;;;;;12.87;6.93;;;1.20;93.10;;;;;;5031884;28;20214;-58
2022/03/10 04:55:53;;;;;;;12.60;7.60;;;1.20;93.10;;;;;;5031732;28;20273;-56
2022/03/10 04:58:21;;;;;;;13.23;8.57;;;1.20;93.20;;;;;;5031681;28;20213;-58
2022/03/10 05:00:48;;;;;;;15.60;10.80;;;1.20;93.20;;;;;;5031385;28;20767;-57
2022/03/10 05:03:15;;;;;;;19.80;11.90;;;1.20;93.20;;;;;;5031749;28;20214;-57
2022/03/10 05:05:41;;;;;;;16.03;10.87;;;1.20;93.60;;;;;;5033843;28;20210;-57
2022/03/10 05:08:08;;;;;;;18.40;11.03;;;1.10;93.80;;;;;;5035319;28;20707;-57
2022/03/10 05:10:35;;;;;;;16.87;10.77;;;1.00;93.90;;;;;;5035669;28;20288;-57
2022/03/10 05:13:02;;;;;;;15.13;10.03;;;1.00;93.90;;;;;;5035534;28;20212;-57
2022/03/10 05:15:31;;;;;;;13.83;9.63;;;1.00;93.90;;;;;;5035416;28;20206;-57
2022/03/10 05:17:59;;;;;;;12.67;9.07;;;0.90;93.70;;;;;;5035604;28;20297;-57
2022/03/10 05:20:26;;;;;;;13.20;9.50;;;0.90;93.80;;;;;;5035911;28;20222;-57
2022/03/10 05:22:55;;;;;;;12.17;9.17;;;0.80;93.80;;;;;;5035508;28;20206;-57
2022/03/10 05:25:23;;;;;;;12.17;8.43;;;0.70;93.80;;;;;;5035451;28;20213;-57
2022/03/10 05:27:51;;;;;;;14.90;9.33;;;0.80;93.90;;;;;;5034856;28;20214;-57
2022/03/10 05:30:19;;;;;;;16.63;9.70;;;0.70;94.00;;;;;;5034747;28;20275;-56
2022/03/10 05:32:47;;;;;;;13.00;8.87;;;0.60;94.10;;;;;;5035443;28;20208;-58
2022/03/10 05:35:15;;;;;;;12.30;8.43;;;0.60;94.10;;;;;;5035296;28;20210;-58
2022/03/10 05:37:43;;;;;;;11.87;8.43;;;0.60;94.20;;;;;;5035130;28;20210;-58
2022/03/10 05:40:12;;;;;;;13.33;8.87;;;0.60;94.30;;;;;;5035094;28;20206;-58
2022/03/10 05:42:39;;;;;;;11.60;8.03;;;0.50;94.40;;;;;;5034838;28;20698;-58
2022/03/10 05:45:06;;;;;;;12.73;9.37;;;0.50;94.40;;;;;;5035077;28;20297;-58
2022/03/10 05:47:34;;;;;;;14.90;8.90;;;0.50;94.40;;;;;;5034999;28;20217;-58
2022/03/10 05:50:02;;;;;;;12.60;7.43;;;0.50;94.40;;;;;;5034651;28;20222;-57
2022/03/10 05:52:29;;;;;;;13.43;8.27;;;0.50;94.40;;;;;;5034845;28;20217;-58
2022/03/10 05:54:55;;;;;;;12.00;8.17;;;0.40;94.70;;;;;;5034662;28;20268;-58
2022/03/10 05:57:22;;;;;;;14.27;7.50;;;0.40;94.90;;;;;;5034699;28;20214;-58
2022/03/10 05:59:49;;;;;;;11.87;7.93;;;0.40;95.00;;;;;;5034525;28;20210;-58
2022/03/10 06:02:16;;;;;;;12.53;8.13;;;0.40;95.00;;;;;;5034774;28;20238;-57
2022/03/10 06:04:43;;;;;;;10.60;7.73;;;0.50;95.00;;;;;;5034572;28;20286;-58
2022/03/10 06:07:12;;;;;;;11.10;7.50;;;0.60;94.90;;;;;;5034715;28;20246;-58
2022/03/10 06:09:38;;;;;;;13.87;9.27;;;0.70;94.80;;;;;;5034094;28;20206;-57
2022/03/10 06:12:06;;;;;;;12.87;8.03;;;0.80;94.80;;;;;;5034295;28;20284;-58
2022/03/10 06:14:33;;;;;;;13.77;8.17;;;0.90;94.60;;;;;;5034214;28;20289;-57
2022/03/10 06:17:00;;;;;;;10.93;8.27;;;1.00;94.70;;;;;;5034090;28;20264;-57
2022/03/10 06:19:26;;;;;;;13.97;8.40;;;1.10;94.50;;;;;;5033846;28;20207;-57
2022/03/10 06:21:53;;;;;;;14.47;8.40;;;1.20;94.30;;;;;;5034175;28;20222;-57
2022/03/10 06:24:21;;;;;;;15.23;8.47;;;1.30;94.30;;;;;;5033976;28;20597;-57
2022/03/10 06:26:48;;;;;;;12.83;7.93;;;1.40;94.20;;;;;;5034335;28;20206;-57
2022/03/10 06:29:14;;;;;;;12.70;8.40;;;1.40;94.10;;;;;;5033808;28;20593;-57
2022/03/10 06:31:41;;;;;;;12.00;8.47;;;1.50;94.00;;;;;;5033987;28;20256;-57
2022/03/10 06:34:08;;;;;;;12.83;8.73;;;1.50;94.00;;;;;;5034366;28;20724;-57
2022/03/10 06:36:35;;;;;;;15.20;8.17;;;1.50;94.00;;;;;;5033837;28;20213;-57
2022/03/10 06:39:02;;;;;;;12.07;8.73;;;1.70;94.30;;;;;;5033449;28;20211;-57
2022/03/10 06:41:30;;;;;;;13.33;8.77;;;2.40;93.90;;;;;;5033820;28;20225;-57
2022/03/10 06:43:56;;;;;;;24.43;8.23;;;3.70;93.50;;;;;;5033551;28;20647;-58
2022/03/10 06:46:24;;;;;;;17.77;8.10;;;5.40;91.80;;;;;;5033576;28;20218;-58
2022/03/10 06:48:50;;;;;;;15.03;8.37;;;7.00;90.00;;;;;;5033280;28;20648;-57
2022/03/10 06:51:17;;;;;;;15.70;9.80;;;8.60;85.10;;;;;;5033295;28;20307;-57
2022/03/10 06:53:44;;;;;;;19.03;8.33;;;9.80;77.60;;;;;;5033613;28;20667;-58
2022/03/10 06:56:10;;;;;;;12.73;8.77;;;10.30;72.30;;;;;;5033618;28;20203;-58
2022/03/10 06:58:40;;;;;;;18.20;9.07;;;10.00;72.60;;;;;;5033476;28;20554;-58
2022/03/10 07:01:06;;;;;;;15.87;12.10;;;10.20;72.20;;;;;;5033312;28;20237;-58
2022/03/10 07:03:33;;;;;;;15.03;9.40;;;10.80;71.00;;;;;;5033539;28;20470;-58
2022/03/10 07:06:00;;;;;;;12.53;8.87;;;11.30;67.80;;;;;;5033281;28;20206;-58
2022/03/10 07:08:26;;;;;;;14.87;9.70;;;10.90;69.40;;;;;;5032955;28;20217;-59
2022/03/10 07:10:53;;;;;;;14.63;9.30;;;11.40;68.80;;;;;;5033453;28;20234;-59
2022/03/10 07:13:20;;;;;;;16.10;9.03;;;12.60;66.50;;;;;;5033477;28;20245;-59
2022/03/10 07:15:48;;;;;;;15.03;9.00;;;13.90;63.50;;;;;;5033142;28;20238;-59
2022/03/10 07:18:15;;;;;;;14.93;9.13;;;15.10;61.80;;;;;;5033616;28;20206;-59
2022/03/10 07:20:41;;;;;;;16.50;9.63;;;16.10;59.70;;;;;;5033079;28;20229;-59
2022/03/10 07:23:08;;;;;;;14.50;9.80;;;17.10;57.00;;;;;;5033255;28;20202;-59
2022/03/10 07:25:35;;;;;;;14.75;9.88;;;17.70;55.40;;;;;;5032988;28;20210;-59
2022/03/10 07:28:02;;;;;;;12.93;9.63;;;18.20;54.40;;;;;;5032093;28;20717;-59
2022/03/10 07:30:28;;;;;;;14.65;9.60;;;17.60;53.00;;;;;;5032751;28;20226;-59
2022/03/10 07:32:56;;;;;;;14.85;10.63;;;17.30;54.00;;;;;;5032823;28;20209;-59
2022/03/10 07:35:23;;;;;;;12.93;9.73;;;16.70;54.40;;;;;;5032645;28;20210;-59
2022/03/10 07:37:52;;;;;;;13.25;9.45;;;16.60;54.80;;;;;;5032774;28;20221;-58
2022/03/10 07:40:20;;;;;;;13.52;9.27;;;16.90;54.10;;;;;;5032342;28;20581;-58
2022/03/10 07:42:47;;;;;;;12.50;8.77;;;17.10;53.80;;;;;;5032814;28;20210;-60
2022/03/10 07:45:14;;;;;;;15.63;9.30;;;17.00;53.10;;;;;;5032671;28;20289;-59
2022/03/10 07:47:40;;;;;;;13.25;9.18;;;16.90;54.00;;;;;;5032461;28;20449;-58
2022/03/10 07:50:10;;;;;;;13.50;9.65;;;17.30;53.40;;;;;;5032296;28;20206;-58
2022/03/10 07:52:37;;;;;;;10.90;8.80;;;17.20;54.00;;;;;;5033085;28;20284;-57
2022/03/10 07:55:05;;;;;;;12.67;8.33;;;16.50;54.30;;;;;;5032689;28;20210;-57
2022/03/10 07:57:34;;;;;;;10.77;8.10;;;14.80;56.00;;;;;;5032482;28;20688;-57
2022/03/10 08:00:00;;;;;;;11.13;8.60;;;12.80;60.10;;;;;;5032555;28;20257;-57
2022/03/10 08:02:27;;;;;;;13.97;8.20;;;11.80;62.30;;;;;;5032290;28;20210;-57
2022/03/10 08:04:54;;;;;;;13.53;9.83;;;10.80;65.80;;;;;;5032500;28;20206;-56
2022/03/10 08:07:22;;;;;;;13.10;8.73;;;10.10;68.10;;;;;;5032254;28;20210;-56
2022/03/10 08:09:49;;;;;;;10.37;8.20;;;9.80;70.90;;;;;;5032419;28;20209;-56
2022/03/10 08:12:15;;;;;;;14.00;9.30;;;9.50;72.20;;;;;;5031634;28;20706;-56
2022/03/10 08:14:42;;;;;;;17.57;10.23;;;9.30;73.40;;;;;;5027502;28;20529;-56
2022/03/10 08:17:09;;;;;;;13.47;9.43;;;9.10;75.90;;;;;;5031930;28;20725;-57
2022/03/10 08:19:36;;;;;;;12.47;8.97;;;8.90;76.30;;;;;;5031605;28;20292;-57
2022/03/10 08:22:06;;;;;;;15.30;9.70;;;8.90;77.70;;;;;;5032463;28;20252;-60
2022/03/10 08:24:34;;;;;;;13.67;8.90;;;9.00;77.40;;;;;;5031969;28;20276;-61
2022/03/10 08:27:01;;;;;;;13.30;8.90;;;8.90;77.70;;;;;;5032237;28;20239;-62
2022/03/10 08:29:28;;;;;;;14.13;9.13;;;8.60;78.40;;;;;;5031497;28;20218;-60
2022/03/10 08:31:54;;;;;;;12.70;8.93;;;8.70;78.60;;;;;;5031930;28;20621;-62
2022/03/10 08:34:21;;;;;;;12.77;9.13;;;8.60;78.40;;;;;;5032112;28;20217;-61
2022/03/10 08:36:48;;;;;;;14.13;8.73;;;8.40;79.50;;;;;;5031758;28;20209;-61
2022/03/10 08:39:15;;;;;;;14.57;7.80;;;8.40;79.50;;;;;;5031818;28;20218;-61
2022/03/10 08:41:43;;;;;;;12.37;7.70;;;8.50;79.20;;;;;;5037241;28;20222;-62
2022/03/10 08:44:10;;;;;;;10.33;6.83;;;8.60;78.40;;;;;;5036830;28;20700;-62
2022/03/10 08:46:37;;;;;;;10.20;6.00;;;8.80;75.20;;;;;;5037090;28;20217;-63
2022/03/10 08:49:04;;;;;;;9.43;6.07;;;9.00;72.60;;;;;;5036693;28;20678;-62
2022/03/10 08:51:30;;;;;;;7.30;5.50;;;9.20;72.50;;;;;;5036675;28;20284;-60
2022/03/10 08:53:57;;;;;;;8.03;4.97;;;9.40;71.60;;;;;;5036137;28;20202;-60
2022/03/10 08:56:24;;;;;;;7.77;5.60;;;9.50;70.80;;;;;;5036004;28;20202;-61
2022/03/10 08:58:52;;;;;;;6.60;5.13;;;9.60;69.90;;;;;;5035498;28;20233;-59
2022/03/10 09:01:18;;;;;;;8.17;5.57;;;9.70;69.30;;;;;;5035858;28;20279;-60
2022/03/10 09:03:45;;;;;;;7.07;5.20;;;9.80;69.30;;;;;;5036144;28;20304;-60
2022/03/10 09:06:13;;;;;;;9.20;4.87;;;9.90;68.90;;;;;;5035722;28;20689;-60
2022/03/10 09:08:42;;;;;;;6.73;5.40;;;10.00;67.20;;;;;;5035451;28;20206;-61
2022/03/10 09:11:09;;;;;;;7.60;5.20;;;10.10;67.30;;;;;;5035133;28;20226;-59
2022/03/10 09:13:35;;;;;;;9.13;5.73;;;10.30;66.80;;;;;;5035396;28;20206;-60
2022/03/10 09:16:04;;;;;;;8.47;5.57;;;10.30;66.50;;;;;;5035287;28;20207;-60
2022/03/10 09:18:30;;;;;;;6.97;5.50;;;10.50;66.10;;;;;;5034910;28;20328;-60
2022/03/10 09:20:57;;;;;;;8.03;5.20;;;10.50;65.50;;;;;;5035136;28;20284;-59
2022/03/10 09:23:24;;;;;;;8.93;5.40;;;10.60;65.60;;;;;;5035140;28;20203;-60
2022/03/10 09:25:51;;;;;;;5.97;4.80;;;10.60;65.60;;;;;;5034522;28;20701;-60
2022/03/10 09:28:17;;;;;;;9.07;5.43;;;10.70;65.40;;;;;;5035006;28;20210;-60
2022/03/10 09:30:44;;;;;;;7.07;5.70;;;10.80;66.00;;;;;;5035402;28;20235;-62
2022/03/10 09:33:12;;;;;;;7.50;5.33;;;10.80;65.80;;;;;;5035210;28;20213;-60
2022/03/10 09:35:39;;;;;;;8.33;5.33;;;11.00;65.60;;;;;;5035538;28;20213;-59
2022/03/10 09:38:06;;;;;;;7.70;5.10;;;11.10;64.80;;;;;;5034741;28;20565;-59
2022/03/10 09:40:32;;;;;;;7.00;5.47;;;11.30;64.60;;;;;;5034999;28;20233;-60
2022/03/10 09:43:00;;;;;;;7.53;5.33;;;11.50;64.40;;;;;;5035240;28;20203;-60
2022/03/10 09:45:30;;;;;;;6.87;5.60;;;11.60;63.60;;;;;;5035146;28;20559;-59
2022/03/10 09:47:57;;;;;;;8.23;4.93;;;11.60;64.00;;;;;;5034975;28;20213;-60
2022/03/10 09:50:25;;;;;;;7.07;5.30;;;11.80;63.20;;;;;;5033781;28;20222;-59
2022/03/10 09:52:52;;;;;;;7.10;5.00;;;11.80;63.50;;;;;;5034269;28;20234;-58
2022/03/10 09:55:19;;;;;;;6.37;4.83;;;11.80;63.10;;;;;;5034411;28;20692;-59
2022/03/10 09:57:47;;;;;;;10.10;5.30;;;11.80;63.20;;;;;;5034656;28;20214;-59
2022/03/10 10:00:17;;;;;;;5.73;4.73;;;12.00;62.70;;;;;;5034310;28;20210;-59
2022/03/10 10:02:44;;;;;;;7.70;4.67;;;12.30;62.70;;;;;;5034751;28;20203;-60
2022/03/10 10:05:26;;;;;;;6.70;4.30;;;12.40;61.70;;;;;;5034566;28;20217;-59
2022/03/10 10:08:04;;;;;;;5.73;4.67;;;12.50;61.10;;;;;;5034943;28;20202;-62
2022/03/10 10:10:32;;;;;;;6.17;4.73;;;12.60;61.20;;;;;;5034504;28;20226;-60
2022/03/10 10:13:04;;;;;;;5.50;4.10;;;12.70;60.20;;;;;;5034391;28;20233;-59
2022/03/10 10:15:33;;;;;;;6.80;4.47;;;12.70;60.00;;;;;;5034186;28;20213;-58
2022/03/10 10:18:00;;;;;;;6.60;4.27;;;12.80;59.80;;;;;;5034456;28;20202;-60
2022/03/10 10:20:33;;;;;;;8.37;3.80;;;12.80;59.70;;;;;;5034376;28;20284;-60
2022/03/10 10:23:18;;;;;;;4.80;3.77;;;12.90;59.90;;;;;;5034367;28;20206;-59
2022/03/10 10:25:50;;;;;;;6.93;4.20;;;13.10;59.40;;;;;;5033967;28;20223;-59
2022/03/10 10:28:23;;;;;;;5.60;4.77;;;13.20;58.80;;;;;;5033881;28;20310;-60
2022/03/10 10:30:53;;;;;;;5.67;4.40;;;13.30;58.80;;;;;;5034267;28;20284;-61
2022/03/10 10:33:20;;;;;;;5.67;4.13;;;13.40;58.60;;;;;;5033890;28;20280;-61
2022/03/10 10:35:48;;;;;;;5.60;4.07;;;13.50;58.00;;;;;;5033868;28;20221;-60
2022/03/10 10:38:29;;;;;;;4.53;3.70;;;13.60;57.50;;;;;;5033664;28;20206;-59
2022/03/10 10:41:21;;;;;;;5.67;3.97;;;13.70;56.80;;;;;;5034215;28;20321;-59
2022/03/10 10:43:51;;;;;;;7.43;4.30;;;13.70;57.30;;;;;;5034174;28;20242;-59
2022/03/10 10:46:32;;;;;;;5.57;4.37;;;13.80;57.10;;;;;;5033994;28;20213;-59
2022/03/10 10:49:00;;;;;;;5.83;4.10;;;13.90;57.40;;;;;;5033771;28;20638;-59
2022/03/10 10:51:30;;;;;;;5.90;4.40;;;14.10;56.50;;;;;;5033605;28;20737;-59
2022/03/10 10:53:58;;;;;;;5.07;3.57;;;14.10;56.90;;;;;;5033613;28;20590;-58
2022/03/10 10:56:25;;;;;;;5.20;3.93;;;14.20;56.20;;;;;;5033580;28;20217;-59
2022/03/10 10:58:54;;;;;;;4.73;3.70;;;14.20;56.40;;;;;;5033535;28;20214;-58
2022/03/10 11:01:31;;;;;;;5.90;3.67;;;14.30;56.40;;;;;;5033746;28;20234;-58
2022/03/10 11:03:58;;;;;;;4.87;3.87;;;14.50;55.70;;;;;;5032966;28;20651;-58
2022/03/10 11:06:25;;;;;;;4.80;3.60;;;14.50;55.50;;;;;;5033786;28;20213;-59
2022/03/10 11:08:54;;;;;;;4.73;3.70;;;14.60;55.40;;;;;;5033311;28;20297;-58
2022/03/10 11:11:21;;;;;;;5.53;3.00;;;14.80;55.10;;;;;;5033216;28;20652;-59
2022/03/10 11:13:48;;;;;;;5.90;3.17;;;14.80;54.30;;;;;;5033389;28;20206;-58
2022/03/10 11:16:16;;;;;;;4.10;3.20;;;15.00;54.50;;;;;;5033126;28;20214;-59
2022/03/10 11:18:48;;;;;;;5.53;3.50;;;15.10;53.80;;;;;;5033140;28;20210;-59
2022/03/10 11:21:35;;;;;;;4.27;3.40;;;15.20;53.50;;;;;;5033091;28;20229;-59
2022/03/10 11:24:27;;;;;;;4.10;3.07;;;15.20;52.60;;;;;;5020193;28;20712;-59
2022/03/10 11:27:02;;;;;;;5.40;3.33;;;15.40;53.20;;;;;;5032615;28;20206;-59
2022/03/10 11:29:32;;;;;;;6.67;3.83;;;15.40;53.30;;;;;;5032688;28;20210;-59
2022/03/10 11:31:59;;;;;;;6.03;3.40;;;15.60;52.70;;;;;;5032444;28;20668;-59
2022/03/10 11:34:48;;;;;;;4.77;3.63;;;15.60;52.00;;;;;;5032812;28;20202;-59
2022/03/10 11:37:48;;;;;;;6.57;2.80;;;15.40;51.80;;;;;;5028516;28;20213;-59
2022/03/10 11:40:18;;;;;;;5.17;3.57;;;15.40;51.50;;;;;;5032541;28;20206;-59
2022/03/10 11:42:45;;;;;;;5.67;3.90;;;15.40;52.00;;;;;;5032017;28;20678;-58
2022/03/10 11:45:16;;;;;;;7.00;3.63;;;15.50;51.90;;;;;;5032513;28;20206;-59
2022/03/10 11:47:43;;;;;;;4.33;3.50;;;15.60;52.30;;;;;;5032787;28;20615;-59
2022/03/10 11:50:27;;;;;;;4.70;3.23;;;15.70;51.70;;;;;;5032600;28;20207;-59
2022/03/10 11:53:00;;;;;;;5.03;3.70;;;15.70;51.60;;;;;;5032545;28;20232;-58
2022/03/10 11:55:41;;;;;;;3.27;2.80;;;15.60;50.60;;;;;;5032516;28;20553;-59
2022/03/10 11:58:10;;;;;;;4.77;3.13;;;15.40;50.80;;;;;;5033553;28;20209;-59
2022/03/10 12:00:57;;;;;;;5.13;2.97;;;15.30;50.90;;;;;;5032909;28;20304;-58
2022/03/10 12:03:30;;;;;;;3.97;3.37;;;15.40;50.20;;;;;;5032705;28;20198;-58
2022/03/10 12:05:59;;;;;;;3.47;3.17;;;15.40;50.40;;;;;;5032521;28;20218;-57
2022/03/10 12:08:26;;;;;;;4.33;3.17;;;15.50;50.50;;;;;;5031740;28;20763;-58
2022/03/10 12:10:55;;;;;;;4.73;3.27;;;15.60;49.50;;;;;;5032162;28;20283;-57
2022/03/10 12:13:33;;;;;;;4.63;3.40;;;15.80;49.30;;;;;;5032317;28;20649;-57
2022/03/10 12:16:00;;;;;;;5.07;3.93;;;15.70;49.20;;;;;;5032242;28;20280;-58
2022/03/10 12:18:32;;;;;;;9.53;8.07;;;15.70;50.10;;;;;;5031935;28;20605;-58
2022/03/10 12:21:00;;;;;;;5.93;3.67;;;15.70;49.60;;;;;;5032267;28;20697;-58
2022/03/10 12:23:29;;;;;;;6.10;3.50;;;15.90;49.40;;;;;;5032329;28;20206;-58
2022/03/10 12:26:00;;;;;;;6.60;3.70;;;16.00;48.90;;;;;;5032058;28;20213;-59
2022/03/10 12:28:33;;;;;;;5.70;3.60;;;16.10;49.00;;;;;;5031967;28;20210;-58
2022/03/10 12:31:06;;;;;;;6.07;3.60;;;16.20;49.20;;;;;;5031847;28;20226;-58
2022/03/10 12:33:33;;;;;;;7.27;3.40;;;16.20;49.10;;;;;;5032070;28;20230;-58
2022/03/10 12:36:01;;;;;;;5.83;3.50;;;16.20;48.60;;;;;;5031883;28;20213;-58
2022/03/10 12:38:44;;;;;;;5.00;3.43;;;16.10;48.60;;;;;;5031652;28;20214;-58
2022/03/10 12:41:12;;;;;;;5.93;3.20;;;16.10;48.30;;;;;;5031893;28;20245;-59
2022/03/10 12:43:38;;;;;;;4.60;3.40;;;16.40;48.20;;;;;;5031961;28;20273;-59
2022/03/10 12:46:06;;;;;;;7.60;3.60;;;16.50;48.30;;;;;;5032346;28;20647;-60
2022/03/10 12:48:45;;;;;;;5.10;3.90;;;16.60;47.90;;;;;;5031882;28;20268;-60
2022/03/10 12:51:23;;;;;;;4.63;3.67;;;16.70;47.40;;;;;;5031952;28;20299;-60
2022/03/10 12:53:51;;;;;;;6.20;3.75;;;16.80;47.90;;;;;;5031419;28;20260;-60